sensor_id;sensor_type;location;lat;lon;timestamp;pressure;altitude;pressure_sealevel;temperature;humidity
12178;BME280;6152;48.728;9.256;2023-06-22T00:02:00;97111.63;;;21.20;100.00
12178;BME280;6152;48.728;9.256;2023-06-22T00:04:27;97122.22;;;21.20;100.00
12178;BME280;6152;48.728;9.256;2023-06-22T00:06:53;97118.25;;;21.16;100.00
12178;BME280;6152;48.728;9.256;2023-06-22T00:09:20;97114.25;;;21.12;100.00
12178;BME280;6152;48.728;9.256;2023-06-22T00:11:46;97109.94;;;21.11;100.00
12178;BME280;6152;48.728;9.256;2023-06-22T00:14:12;97111.19;;;21.07;100.00
12178;BME280;6152;48.728;9.256;2023-06-22T00:16:38;97101.44;;;21.07;100.00
12178;BME280;6152;48.728;9.256;2023-06-22T00:19:04;97106.53;;;21.01;100.00
12178;BME280;6152;48.728;9.256;2023-06-22T00:21:31;97110.53;;;21.05;100.00
12178;BME280;6152;48.728;9.256;2023-06-22T00:23:57;97115.63;;;20.98;100.00
12178;BME280;6152;48.728;9.256;2023-06-22T00:26:23;97120.41;;;20.95;100.00
12178;BME280;6152;48.728;9.256;2023-06-22T00:28:50;97125.00;;;20.93;100.00
12178;BME280;6152;48.728;9.256;2023-06-22T00:31:16;97116.09;;;20.94;100.00
12178;BME280;6152;48.728;9.256;2023-06-22T00:33:42;97123.38;;;20.92;100.00
12178;BME280;6152;48.728;9.256;2023-06-22T00:36:08;97120.34;;;20.87;100.00
12178;BME280;6152;48.728;9.256;2023-06-22T00:38:35;97112.59;;;20.85;100.00
12178;BME280;6152;48.728;9.256;2023-06-22T00:41:05;97114.41;;;20.85;100.00
12178;BME280;6152;48.728;9.256;2023-06-22T00:43:32;97102.84;;;20.86;100.00
12178;BME280;6152;48.728;9.256;2023-06-22T00:45:58;97103.03;;;20.92;100.00
12178;BME280;6152;48.728;9.256;2023-06-22T00:48:24;97103.84;;;20.93;100.00
12178;BME280;6152;48.728;9.256;2023-06-22T00:50:51;97100.38;;;20.92;100.00
12178;BME280;6152;48.728;9.256;2023-06-22T00:53:19;97108.31;;;20.92;100.00
12178;BME280;6152;48.728;9.256;2023-06-22T00:55:46;97104.84;;;20.92;100.00
12178;BME280;6152;48.728;9.256;2023-06-22T00:58:19;97109.13;;;20.93;100.00
12178;BME280;6152;48.728;9.256;2023-06-22T01:00:48;97127.13;;;20.89;100.00
12178;BME280;6152;48.728;9.256;2023-06-22T01:03:14;97113.09;;;20.89;100.00
12178;BME280;6152;48.728;9.256;2023-06-22T01:05:42;97115.88;;;20.87;100.00
12178;BME280;6152;48.728;9.256;2023-06-22T01:08:41;97131.25;;;20.84;100.00
12178;BME280;6152;48.728;9.256;2023-06-22T01:11:37;97135.19;;;20.80;100.00
12178;BME280;6152;48.728;9.256;2023-06-22T01:14:24;97145.25;;;20.76;100.00
12178;BME280;6152;48.728;9.256;2023-06-22T01:16:55;97167.88;;;20.71;100.00
12178;BME280;6152;48.728;9.256;2023-06-22T01:19:44;97158.56;;;20.66;100.00
12178;BME280;6152;48.728;9.256;2023-06-22T01:22:15;97135.28;;;20.70;100.00
12178;BME280;6152;48.728;9.256;2023-06-22T01:25:33;97121.44;;;20.76;100.00
12178;BME280;6152;48.728;9.256;2023-06-22T01:27:53;97126.59;;;20.78;100.00
12178;BME280;6152;48.728;9.256;2023-06-22T01:30:24;97138.84;;;20.79;100.00
12178;BME280;6152;48.728;9.256;2023-06-22T01:32:53;97133.53;;;20.79;100.00
12178;BME280;6152;48.728;9.256;2023-06-22T01:35:21;97116.31;;;20.75;100.00
12178;BME280;6152;48.728;9.256;2023-06-22T01:37:47;97115.84;;;20.79;100.00
12178;BME280;6152;48.728;9.256;2023-06-22T01:40:14;97119.94;;;20.74;100.00
12178;BME280;6152;48.728;9.256;2023-06-22T01:42:42;97128.34;;;20.69;100.00
12178;BME280;6152;48.728;9.256;2023-06-22T01:45:10;97125.03;;;20.67;100.00
12178;BME280;6152;48.728;9.256;2023-06-22T01:47:37;97106.38;;;20.69;100.00
12178;BME280;6152;48.728;9.256;2023-06-22T01:50:04;97114.25;;;20.60;100.00
12178;BME280;6152;48.728;9.256;2023-06-22T01:52:31;97119.16;;;20.55;100.00
12178;BME280;6152;48.728;9.256;2023-06-22T01:55:00;97120.44;;;20.51;100.00
12178;BME280;6152;48.728;9.256;2023-06-22T01:57:27;97131.31;;;20.48;100.00
12178;BME280;6152;48.728;9.256;2023-06-22T02:00:06;97124.59;;;20.54;100.00
12178;BME280;6152;48.728;9.256;2023-06-22T02:02:56;97130.66;;;20.46;100.00
12178;BME280;6152;48.728;9.256;2023-06-22T02:05:28;97122.88;;;20.45;100.00
12178;BME280;6152;48.728;9.256;2023-06-22T02:08:11;97135.56;;;20.41;100.00
12178;BME280;6152;48.728;9.256;2023-06-22T02:10:38;97127.91;;;20.30;100.00
12178;BME280;6152;48.728;9.256;2023-06-22T02:13:07;97123.84;;;20.26;100.00
12178;BME280;6152;48.728;9.256;2023-06-22T02:15:35;97132.09;;;20.23;100.00
12178;BME280;6152;48.728;9.256;2023-06-22T02:18:02;97147.44;;;20.20;100.00
12178;BME280;6152;48.728;9.256;2023-06-22T02:20:28;97146.72;;;20.17;100.00
12178;BME280;6152;48.728;9.256;2023-06-22T02:22:54;97144.69;;;20.11;100.00
12178;BME280;6152;48.728;9.256;2023-06-22T02:25:20;97135.03;;;20.02;100.00
12178;BME280;6152;48.728;9.256;2023-06-22T02:27:47;97129.53;;;19.96;100.00
12178;BME280;6152;48.728;9.256;2023-06-22T02:30:13;97129.81;;;19.93;100.00
12178;BME280;6152;48.728;9.256;2023-06-22T02:32:41;97131.19;;;19.97;100.00
12178;BME280;6152;48.728;9.256;2023-06-22T02:35:10;97134.97;;;19.94;100.00
12178;BME280;6152;48.728;9.256;2023-06-22T02:37:37;97118.72;;;19.89;100.00
12178;BME280;6152;48.728;9.256;2023-06-22T02:40:08;97116.38;;;19.86;100.00
12178;BME280;6152;48.728;9.256;2023-06-22T02:42:39;97117.16;;;19.79;100.00
12178;BME280;6152;48.728;9.256;2023-06-22T02:45:06;97118.41;;;19.75;100.00
12178;BME280;6152;48.728;9.256;2023-06-22T02:47:32;97109.13;;;19.71;100.00
12178;BME280;6152;48.728;9.256;2023-06-22T02:49:58;97106.63;;;19.69;100.00
12178;BME280;6152;48.728;9.256;2023-06-22T02:52:24;97102.47;;;19.66;100.00
12178;BME280;6152;48.728;9.256;2023-06-22T02:54:50;97093.94;;;19.73;100.00
12178;BME280;6152;48.728;9.256;2023-06-22T02:57:16;97095.94;;;19.71;100.00
12178;BME280;6152;48.728;9.256;2023-06-22T02:59:43;97093.88;;;19.64;100.00
12178;BME280;6152;48.728;9.256;2023-06-22T03:02:09;97095.00;;;19.62;100.00
12178;BME280;6152;48.728;9.256;2023-06-22T03:04:36;97089.03;;;19.60;100.00
12178;BME280;6152;48.728;9.256;2023-06-22T03:07:02;97090.00;;;19.59;100.00
12178;BME280;6152;48.728;9.256;2023-06-22T03:09:29;97088.06;;;19.61;100.00
12178;BME280;6152;48.728;9.256;2023-06-22T03:11:55;97091.81;;;19.58;100.00
12178;BME280;6152;48.728;9.256;2023-06-22T03:14:21;97085.88;;;19.56;100.00
12178;BME280;6152;48.728;9.256;2023-06-22T03:16:47;97088.81;;;19.53;100.00
12178;BME280;6152;48.728;9.256;2023-06-22T03:19:14;97085.47;;;19.51;100.00
12178;BME280;6152;48.728;9.256;2023-06-22T03:21:40;97079.69;;;19.48;100.00
12178;BME280;6152;48.728;9.256;2023-06-22T03:24:07;97080.78;;;19.45;100.00
12178;BME280;6152;48.728;9.256;2023-06-22T03:26:34;97080.66;;;19.47;100.00
12178;BME280;6152;48.728;9.256;2023-06-22T03:29:00;97088.41;;;19.48;100.00
12178;BME280;6152;48.728;9.256;2023-06-22T03:31:26;97089.72;;;19.44;100.00
12178;BME280;6152;48.728;9.256;2023-06-22T03:33:53;97085.09;;;19.46;100.00
12178;BME280;6152;48.728;9.256;2023-06-22T03:36:19;97082.47;;;19.46;100.00
12178;BME280;6152;48.728;9.256;2023-06-22T03:38:46;97087.06;;;19.44;100.00
12178;BME280;6152;48.728;9.256;2023-06-22T03:41:13;97088.72;;;19.45;100.00
12178;BME280;6152;48.728;9.256;2023-06-22T03:43:39;97092.59;;;19.51;100.00
12178;BME280;6152;48.728;9.256;2023-06-22T03:46:05;97085.09;;;19.46;100.00
12178;BME280;6152;48.728;9.256;2023-06-22T03:48:31;97079.97;;;19.45;100.00
12178;BME280;6152;48.728;9.256;2023-06-22T03:50:59;97078.16;;;19.45;100.00
12178;BME280;6152;48.728;9.256;2023-06-22T03:53:25;97083.75;;;19.42;100.00
12178;BME280;6152;48.728;9.256;2023-06-22T03:55:53;97074.16;;;19.41;100.00
12178;BME280;6152;48.728;9.256;2023-06-22T03:58:20;97079.16;;;19.44;100.00
12178;BME280;6152;48.728;9.256;2023-06-22T04:00:47;97072.88;;;19.45;100.00
12178;BME280;6152;48.728;9.256;2023-06-22T04:03:14;97081.50;;;19.47;100.00
12178;BME280;6152;48.728;9.256;2023-06-22T04:05:41;97075.22;;;19.48;100.00
12178;BME280;6152;48.728;9.256;2023-06-22T04:08:07;97072.28;;;19.51;100.00
12178;BME280;6152;48.728;9.256;2023-06-22T04:10:34;97067.53;;;19.55;100.00
12178;BME280;6152;48.728;9.256;2023-06-22T04:13:00;97072.53;;;19.58;100.00
12178;BME280;6152;48.728;9.256;2023-06-22T04:15:26;97068.75;;;19.60;100.00
12178;BME280;6152;48.728;9.256;2023-06-22T04:17:54;97064.84;;;19.64;100.00
12178;BME280;6152;48.728;9.256;2023-06-22T04:20:20;97063.56;;;19.69;100.00
12178;BME280;6152;48.728;9.256;2023-06-22T04:22:46;97057.38;;;19.78;100.00
12178;BME280;6152;48.728;9.256;2023-06-22T04:25:12;97048.84;;;19.84;100.00
12178;BME280;6152;48.728;9.256;2023-06-22T04:27:38;97043.09;;;19.88;100.00
12178;BME280;6152;48.728;9.256;2023-06-22T04:30:07;97048.91;;;19.92;100.00
12178;BME280;6152;48.728;9.256;2023-06-22T04:32:36;97051.91;;;19.97;100.00
12178;BME280;6152;48.728;9.256;2023-06-22T04:35:05;97053.59;;;19.98;100.00
12178;BME280;6152;48.728;9.256;2023-06-22T04:37:32;97035.75;;;20.00;100.00
12178;BME280;6152;48.728;9.256;2023-06-22T04:39:59;97042.91;;;20.07;100.00
12178;BME280;6152;48.728;9.256;2023-06-22T04:42:28;97039.50;;;20.15;100.00
12178;BME280;6152;48.728;9.256;2023-06-22T04:44:54;97041.19;;;20.16;100.00
12178;BME280;6152;48.728;9.256;2023-06-22T04:47:20;97035.59;;;20.19;100.00
12178;BME280;6152;48.728;9.256;2023-06-22T04:49:46;97032.19;;;20.27;100.00
12178;BME280;6152;48.728;9.256;2023-06-22T04:52:13;97023.13;;;20.29;100.00
12178;BME280;6152;48.728;9.256;2023-06-22T04:54:40;97030.59;;;20.34;100.00
12178;BME280;6152;48.728;9.256;2023-06-22T04:57:14;97020.91;;;20.42;100.00
12178;BME280;6152;48.728;9.256;2023-06-22T04:59:41;97018.63;;;20.47;100.00
12178;BME280;6152;48.728;9.256;2023-06-22T05:02:08;97016.66;;;20.49;100.00
12178;BME280;6152;48.728;9.256;2023-06-22T05:04:35;97028.06;;;20.50;100.00
12178;BME280;6152;48.728;9.256;2023-06-22T05:07:04;97025.28;;;20.59;100.00
12178;BME280;6152;48.728;9.256;2023-06-22T05:09:30;97029.59;;;20.60;100.00
12178;BME280;6152;48.728;9.256;2023-06-22T05:11:57;97026.31;;;20.66;100.00
12178;BME280;6152;48.728;9.256;2023-06-22T05:14:23;97026.91;;;20.78;100.00
12178;BME280;6152;48.728;9.256;2023-06-22T05:16:49;97014.84;;;20.84;100.00
12178;BME280;6152;48.728;9.256;2023-06-22T05:19:17;97021.16;;;20.91;100.00
12178;BME280;6152;48.728;9.256;2023-06-22T05:21:43;97009.41;;;20.93;100.00
12178;BME280;6152;48.728;9.256;2023-06-22T05:24:10;97008.28;;;20.96;100.00
12178;BME280;6152;48.728;9.256;2023-06-22T05:26:36;97011.97;;;21.03;100.00
12178;BME280;6152;48.728;9.256;2023-06-22T05:29:03;97002.03;;;21.05;100.00
12178;BME280;6152;48.728;9.256;2023-06-22T05:31:29;97005.19;;;21.08;100.00
12178;BME280;6152;48.728;9.256;2023-06-22T05:33:56;97003.41;;;21.17;100.00
12178;BME280;6152;48.728;9.256;2023-06-22T05:36:22;97001.47;;;21.27;100.00
12178;BME280;6152;48.728;9.256;2023-06-22T05:38:55;97001.66;;;21.34;100.00
12178;BME280;6152;48.728;9.256;2023-06-22T05:41:22;96995.53;;;21.49;100.00
12178;BME280;6152;48.728;9.256;2023-06-22T05:43:48;96999.69;;;21.60;100.00
12178;BME280;6152;48.728;9.256;2023-06-22T05:46:14;97004.50;;;21.73;100.00
12178;BME280;6152;48.728;9.256;2023-06-22T05:48:40;97003.84;;;21.87;100.00
12178;BME280;6152;48.728;9.256;2023-06-22T05:51:06;97000.22;;;22.04;100.00
12178;BME280;6152;48.728;9.256;2023-06-22T05:53:32;97002.53;;;22.15;100.00
12178;BME280;6152;48.728;9.256;2023-06-22T05:55:58;97004.03;;;22.26;100.00
12178;BME280;6152;48.728;9.256;2023-06-22T05:58:25;97005.50;;;22.36;100.00
12178;BME280;6152;48.728;9.256;2023-06-22T06:00:51;97006.34;;;22.37;100.00
12178;BME280;6152;48.728;9.256;2023-06-22T06:03:17;97004.13;;;22.48;100.00
12178;BME280;6152;48.728;9.256;2023-06-22T06:05:43;97006.59;;;22.66;100.00
12178;BME280;6152;48.728;9.256;2023-06-22T06:08:10;97002.41;;;22.80;100.00
12178;BME280;6152;48.728;9.256;2023-06-22T06:10:37;96992.44;;;22.90;100.00
12178;BME280;6152;48.728;9.256;2023-06-22T06:13:03;96993.72;;;23.02;100.00
12178;BME280;6152;48.728;9.256;2023-06-22T06:15:33;96988.03;;;23.13;100.00
12178;BME280;6152;48.728;9.256;2023-06-22T06:18:00;96998.59;;;23.21;100.00
12178;BME280;6152;48.728;9.256;2023-06-22T06:20:26;96991.94;;;23.25;100.00
12178;BME280;6152;48.728;9.256;2023-06-22T06:22:55;96994.91;;;23.30;100.00
12178;BME280;6152;48.728;9.256;2023-06-22T06:25:22;97001.69;;;23.41;100.00
12178;BME280;6152;48.728;9.256;2023-06-22T06:27:50;96997.66;;;23.45;100.00
12178;BME280;6152;48.728;9.256;2023-06-22T06:30:18;97002.75;;;23.54;100.00
12178;BME280;6152;48.728;9.256;2023-06-22T06:32:45;96994.00;;;23.69;100.00
12178;BME280;6152;48.728;9.256;2023-06-22T06:35:13;96991.75;;;23.80;100.00
12178;BME280;6152;48.728;9.256;2023-06-22T06:37:42;96990.69;;;23.89;100.00
12178;BME280;6152;48.728;9.256;2023-06-22T06:40:11;97000.97;;;24.15;100.00
12178;BME280;6152;48.728;9.256;2023-06-22T06:42:42;97000.25;;;24.21;100.00
12178;BME280;6152;48.728;9.256;2023-06-22T06:45:20;97001.38;;;24.41;100.00
12178;BME280;6152;48.728;9.256;2023-06-22T06:47:48;97006.53;;;24.57;100.00
12178;BME280;6152;48.728;9.256;2023-06-22T06:50:15;97004.16;;;24.62;100.00
12178;BME280;6152;48.728;9.256;2023-06-22T06:52:41;96997.44;;;24.67;100.00
12178;BME280;6152;48.728;9.256;2023-06-22T06:55:08;96992.88;;;24.90;100.00
12178;BME280;6152;48.728;9.256;2023-06-22T06:57:38;96994.53;;;25.05;100.00
12178;BME280;6152;48.728;9.256;2023-06-22T07:00:09;96997.69;;;25.30;100.00
12178;BME280;6152;48.728;9.256;2023-06-22T07:02:38;96998.28;;;25.61;100.00
12178;BME280;6152;48.728;9.256;2023-06-22T07:05:06;97000.19;;;25.89;100.00
12178;BME280;6152;48.728;9.256;2023-06-22T07:07:32;96991.53;;;26.08;100.00
12178;BME280;6152;48.728;9.256;2023-06-22T07:09:59;96994.94;;;26.44;100.00
12178;BME280;6152;48.728;9.256;2023-06-22T07:12:25;96996.22;;;26.83;95.94
12178;BME280;6152;48.728;9.256;2023-06-22T07:14:52;96987.69;;;27.07;95.99
12178;BME280;6152;48.728;9.256;2023-06-22T07:17:19;96992.72;;;27.30;92.43
12178;BME280;6152;48.728;9.256;2023-06-22T07:19:45;96987.72;;;27.54;88.27
12178;BME280;6152;48.728;9.256;2023-06-22T07:22:11;96983.22;;;27.68;85.77
12178;BME280;6152;48.728;9.256;2023-06-22T07:24:37;96978.91;;;27.87;84.47
12178;BME280;6152;48.728;9.256;2023-06-22T07:27:04;96975.63;;;28.04;82.36
12178;BME280;6152;48.728;9.256;2023-06-22T07:29:32;96963.91;;;28.32;80.71
12178;BME280;6152;48.728;9.256;2023-06-22T07:31:59;96966.56;;;28.38;78.07
12178;BME280;6152;48.728;9.256;2023-06-22T07:34:26;96964.06;;;28.56;78.88
12178;BME280;6152;48.728;9.256;2023-06-22T07:36:52;96956.19;;;28.88;72.58
12178;BME280;6152;48.728;9.256;2023-06-22T07:39:19;96944.44;;;28.89;72.39
12178;BME280;6152;48.728;9.256;2023-06-22T07:41:48;96945.94;;;28.58;69.36
12178;BME280;6152;48.728;9.256;2023-06-22T07:44:14;96948.59;;;28.65;69.68
12178;BME280;6152;48.728;9.256;2023-06-22T07:46:40;96930.69;;;28.79;72.08
12178;BME280;6152;48.728;9.256;2023-06-22T07:49:06;96935.22;;;29.23;67.98
12178;BME280;6152;48.728;9.256;2023-06-22T07:51:34;96926.75;;;29.32;68.17
12178;BME280;6152;48.728;9.256;2023-06-22T07:54:00;96920.56;;;29.63;66.30
12178;BME280;6152;48.728;9.256;2023-06-22T07:56:26;96919.16;;;30.10;63.64
12178;BME280;6152;48.728;9.256;2023-06-22T07:58:52;96914.81;;;30.16;62.90
12178;BME280;6152;48.728;9.256;2023-06-22T08:01:19;96912.22;;;29.46;63.62
12178;BME280;6152;48.728;9.256;2023-06-22T08:03:49;96912.94;;;29.60;64.77
12178;BME280;6152;48.728;9.256;2023-06-22T08:06:15;96908.75;;;29.71;67.02
12178;BME280;6152;48.728;9.256;2023-06-22T08:08:42;96914.16;;;30.20;63.45
12178;BME280;6152;48.728;9.256;2023-06-22T08:11:09;96925.41;;;30.53;60.40
12178;BME280;6152;48.728;9.256;2023-06-22T08:13:35;96926.88;;;30.86;61.85
12178;BME280;6152;48.728;9.256;2023-06-22T08:16:01;96928.84;;;31.45;58.21
12178;BME280;6152;48.728;9.256;2023-06-22T08:18:29;96940.69;;;31.85;56.51
12178;BME280;6152;48.728;9.256;2023-06-22T08:20:55;96942.06;;;32.06;53.20
12178;BME280;6152;48.728;9.256;2023-06-22T08:23:21;96946.97;;;32.09;53.75
12178;BME280;6152;48.728;9.256;2023-06-22T08:25:47;96952.13;;;32.22;53.40
12178;BME280;6152;48.728;9.256;2023-06-22T08:28:16;96957.38;;;31.46;52.65
12178;BME280;6152;48.728;9.256;2023-06-22T08:30:42;96957.59;;;31.44;56.04
12178;BME280;6152;48.728;9.256;2023-06-22T08:33:08;96959.97;;;31.71;54.32
12178;BME280;6152;48.728;9.256;2023-06-22T08:35:34;96972.28;;;32.31;52.58
12178;BME280;6152;48.728;9.256;2023-06-22T08:38:00;96977.00;;;32.71;51.42
12178;BME280;6152;48.728;9.256;2023-06-22T08:40:27;96979.19;;;33.20;48.60
12178;BME280;6152;48.728;9.256;2023-06-22T08:42:55;96982.19;;;32.61;49.25
12178;BME280;6152;48.728;9.256;2023-06-22T08:45:21;96985.81;;;32.78;50.32
12178;BME280;6152;48.728;9.256;2023-06-22T08:47:47;96983.91;;;33.41;50.00
12178;BME280;6152;48.728;9.256;2023-06-22T08:50:13;96981.31;;;32.95;48.74
12178;BME280;6152;48.728;9.256;2023-06-22T08:52:40;96980.94;;;32.45;49.21
12178;BME280;6152;48.728;9.256;2023-06-22T08:55:10;96973.09;;;32.09;50.74
12178;BME280;6152;48.728;9.256;2023-06-22T08:57:36;96969.66;;;32.01;51.30
12178;BME280;6152;48.728;9.256;2023-06-22T09:00:06;96968.34;;;32.04;53.63
12178;BME280;6152;48.728;9.256;2023-06-22T09:02:37;96959.75;;;32.25;51.37
12178;BME280;6152;48.728;9.256;2023-06-22T09:05:04;96953.19;;;32.10;53.27
12178;BME280;6152;48.728;9.256;2023-06-22T09:07:30;96964.31;;;32.94;49.36
12178;BME280;6152;48.728;9.256;2023-06-22T09:09:57;96969.00;;;33.50;47.77
12178;BME280;6152;48.728;9.256;2023-06-22T09:12:23;96960.75;;;34.69;45.28
12178;BME280;6152;48.728;9.256;2023-06-22T09:14:52;96960.66;;;35.40;42.57
12178;BME280;6152;48.728;9.256;2023-06-22T09:17:18;96945.56;;;36.35;41.27
12178;BME280;6152;48.728;9.256;2023-06-22T09:19:44;96944.44;;;36.58;39.11
12178;BME280;6152;48.728;9.256;2023-06-22T09:22:10;96941.41;;;37.83;37.77
12178;BME280;6152;48.728;9.256;2023-06-22T09:24:36;96951.47;;;38.69;35.24
12178;BME280;6152;48.728;9.256;2023-06-22T09:27:02;96952.31;;;38.64;35.25
12178;BME280;6152;48.728;9.256;2023-06-22T09:29:28;96947.69;;;37.94;35.76
12178;BME280;6152;48.728;9.256;2023-06-22T09:31:55;96951.69;;;39.62;33.39
12178;BME280;6152;48.728;9.256;2023-06-22T09:34:21;96935.06;;;40.70;32.04
12178;BME280;6152;48.728;9.256;2023-06-22T09:36:47;96931.00;;;41.76;30.62
12178;BME280;6152;48.728;9.256;2023-06-22T09:39:14;96934.63;;;42.87;28.87
12178;BME280;6152;48.728;9.256;2023-06-22T09:41:40;96927.75;;;41.74;29.13
12178;BME280;6152;48.728;9.256;2023-06-22T09:44:06;96935.88;;;41.42;29.99
12178;BME280;6152;48.728;9.256;2023-06-22T09:46:32;96910.78;;;40.92;30.10
12178;BME280;6152;48.728;9.256;2023-06-22T09:48:59;96908.59;;;40.13;31.23
12178;BME280;6152;48.728;9.256;2023-06-22T09:51:25;96904.81;;;40.38;31.87
12178;BME280;6152;48.728;9.256;2023-06-22T09:53:52;96897.81;;;40.26;31.61
12178;BME280;6152;48.728;9.256;2023-06-22T09:56:20;96905.53;;;39.80;32.09
12178;BME280;6152;48.728;9.256;2023-06-22T09:58:46;96909.16;;;39.66;32.12
12178;BME280;6152;48.728;9.256;2023-06-22T10:01:13;96915.22;;;39.97;31.72
12178;BME280;6152;48.728;9.256;2023-06-22T10:03:42;96906.31;;;40.49;30.74
12178;BME280;6152;48.728;9.256;2023-06-22T10:06:08;96899.25;;;41.80;29.01
12178;BME280;6152;48.728;9.256;2023-06-22T10:08:37;96886.09;;;42.14;28.83
12178;BME280;6152;48.728;9.256;2023-06-22T10:11:04;96887.31;;;41.33;29.72
12178;BME280;6152;48.728;9.256;2023-06-22T10:13:30;96872.63;;;40.34;30.90
12178;BME280;6152;48.728;9.256;2023-06-22T10:15:56;96874.97;;;38.80;32.64
12178;BME280;6152;48.728;9.256;2023-06-22T10:18:23;96864.47;;;38.33;33.78
12178;BME280;6152;48.728;9.256;2023-06-22T10:20:50;96861.78;;;37.68;34.92
12178;BME280;6152;48.728;9.256;2023-06-22T10:23:19;96855.25;;;37.69;35.99
12178;BME280;6152;48.728;9.256;2023-06-22T10:25:46;96855.78;;;37.91;36.32
12178;BME280;6152;48.728;9.256;2023-06-22T10:28:12;96852.19;;;37.45;36.00
12178;BME280;6152;48.728;9.256;2023-06-22T10:30:39;96853.53;;;36.13;37.70
12178;BME280;6152;48.728;9.256;2023-06-22T10:33:07;96858.72;;;35.29;39.85
12178;BME280;6152;48.728;9.256;2023-06-22T10:35:34;96847.69;;;35.36;41.04
12178;BME280;6152;48.728;9.256;2023-06-22T10:38:00;96828.97;;;35.29;40.78
12178;BME280;6152;48.728;9.256;2023-06-22T10:40:26;96836.56;;;35.32;40.59
12178;BME280;6152;48.728;9.256;2023-06-22T10:42:52;96837.41;;;35.11;42.17
12178;BME280;6152;48.728;9.256;2023-06-22T10:45:18;96843.72;;;34.95;42.06
12178;BME280;6152;48.728;9.256;2023-06-22T10:47:44;96831.47;;;34.27;44.06
12178;BME280;6152;48.728;9.256;2023-06-22T10:50:11;96829.56;;;34.88;43.66
12178;BME280;6152;48.728;9.256;2023-06-22T10:52:37;96828.09;;;35.02;43.01
12178;BME280;6152;48.728;9.256;2023-06-22T10:55:04;96833.09;;;34.67;43.94
12178;BME280;6152;48.728;9.256;2023-06-22T10:57:30;96834.00;;;34.56;44.77
12178;BME280;6152;48.728;9.256;2023-06-22T10:59:56;96840.72;;;34.70;44.76
12178;BME280;6152;48.728;9.256;2023-06-22T11:02:23;96839.56;;;34.44;44.15
12178;BME280;6152;48.728;9.256;2023-06-22T11:04:49;96834.13;;;34.22;44.98
12178;BME280;6152;48.728;9.256;2023-06-22T11:07:16;96824.94;;;33.90;46.08
12178;BME280;6152;48.728;9.256;2023-06-22T11:09:43;96822.47;;;33.55;47.16
12178;BME280;6152;48.728;9.256;2023-06-22T11:12:09;96828.88;;;33.66;47.93
12178;BME280;6152;48.728;9.256;2023-06-22T11:14:36;96831.03;;;33.80;47.81
12178;BME280;6152;48.728;9.256;2023-06-22T11:17:02;96832.56;;;34.10;47.25
12178;BME280;6152;48.728;9.256;2023-06-22T11:19:28;96839.28;;;34.45;46.13
12178;BME280;6152;48.728;9.256;2023-06-22T11:21:54;96836.31;;;34.85;43.78
12178;BME280;6152;48.728;9.256;2023-06-22T11:24:20;96851.00;;;34.73;43.91
12178;BME280;6152;48.728;9.256;2023-06-22T11:26:46;96854.44;;;34.46;45.26
12178;BME280;6152;48.728;9.256;2023-06-22T11:29:12;96844.56;;;34.35;45.97
12178;BME280;6152;48.728;9.256;2023-06-22T11:31:38;96841.94;;;34.40;44.60
12178;BME280;6152;48.728;9.256;2023-06-22T11:34:05;96835.69;;;33.85;46.12
12178;BME280;6152;48.728;9.256;2023-06-22T11:36:31;96831.19;;;33.74;46.27
12178;BME280;6152;48.728;9.256;2023-06-22T11:38:59;96823.41;;;33.94;47.73
12178;BME280;6152;48.728;9.256;2023-06-22T11:41:25;96821.94;;;34.20;46.81
12178;BME280;6152;48.728;9.256;2023-06-22T11:43:51;96825.59;;;33.97;47.00
12178;BME280;6152;48.728;9.256;2023-06-22T11:46:17;96809.84;;;34.27;45.48
12178;BME280;6152;48.728;9.256;2023-06-22T11:48:43;96805.84;;;34.51;45.28
12178;BME280;6152;48.728;9.256;2023-06-22T11:51:10;96812.94;;;34.36;45.31
12178;BME280;6152;48.728;9.256;2023-06-22T11:53:36;96811.53;;;33.95;45.98
12178;BME280;6152;48.728;9.256;2023-06-22T11:56:02;96818.41;;;33.86;46.50
12178;BME280;6152;48.728;9.256;2023-06-22T11:58:28;96816.28;;;33.55;48.72
12178;BME280;6152;48.728;9.256;2023-06-22T12:00:55;96824.47;;;33.76;49.86
12178;BME280;6152;48.728;9.256;2023-06-22T12:03:21;96827.59;;;33.85;48.47
12178;BME280;6152;48.728;9.256;2023-06-22T12:05:47;96830.03;;;34.41;45.69
12178;BME280;6152;48.728;9.256;2023-06-22T12:08:14;96832.41;;;34.55;45.63
12178;BME280;6152;48.728;9.256;2023-06-22T12:10:40;96827.47;;;34.51;46.49
12178;BME280;6152;48.728;9.256;2023-06-22T12:13:06;96815.03;;;34.50;47.66
12178;BME280;6152;48.728;9.256;2023-06-22T12:15:32;96810.84;;;34.21;43.76
12178;BME280;6152;48.728;9.256;2023-06-22T12:17:58;96807.13;;;33.89;44.07
12178;BME280;6152;48.728;9.256;2023-06-22T12:20:24;96817.44;;;33.92;43.77
12178;BME280;6152;48.728;9.256;2023-06-22T12:22:50;96815.25;;;34.11;43.72
12178;BME280;6152;48.728;9.256;2023-06-22T12:25:18;96809.03;;;34.10;44.00
12178;BME280;6152;48.728;9.256;2023-06-22T12:27:44;96817.69;;;33.74;44.03
12178;BME280;6152;48.728;9.256;2023-06-22T12:30:10;96818.34;;;33.64;44.52
12178;BME280;6152;48.728;9.256;2023-06-22T12:32:36;96815.78;;;33.58;45.52
12178;BME280;6152;48.728;9.256;2023-06-22T12:35:03;96816.34;;;33.26;46.84
12178;BME280;6152;48.728;9.256;2023-06-22T12:37:29;96816.03;;;33.11;47.25
12178;BME280;6152;48.728;9.256;2023-06-22T12:39:57;96829.31;;;32.73;49.62
12178;BME280;6152;48.728;9.256;2023-06-22T12:42:23;96847.78;;;32.29;52.67
12178;BME280;6152;48.728;9.256;2023-06-22T12:44:49;96858.75;;;31.93;54.04
12178;BME280;6152;48.728;9.256;2023-06-22T12:47:15;96864.59;;;31.37;53.92
12178;BME280;6152;48.728;9.256;2023-06-22T12:49:41;96873.00;;;31.29;55.68
12178;BME280;6152;48.728;9.256;2023-06-22T12:52:10;96874.84;;;31.28;57.50
12178;BME280;6152;48.728;9.256;2023-06-22T12:54:37;96868.19;;;31.31;59.40
12178;BME280;6152;48.728;9.256;2023-06-22T12:57:03;96863.78;;;31.36;61.85
12178;BME280;6152;48.728;9.256;2023-06-22T12:59:29;96868.66;;;31.58;62.87
12178;BME280;6152;48.728;9.256;2023-06-22T13:01:55;96865.50;;;31.72;60.16
12178;BME280;6152;48.728;9.256;2023-06-22T13:04:22;96857.22;;;31.74;58.80
12178;BME280;6152;48.728;9.256;2023-06-22T13:06:48;96837.91;;;31.77;59.58